createdAt,value
2017-11-17T00:00:51.892Z,93.45
2017-11-17T00:01:58.035Z,93.74
2017-11-17T00:03:04.157Z,94.25
2017-11-17T00:04:10.356Z,94.42
2017-11-17T00:05:16.506Z,94.38
2017-11-17T00:06:22.643Z,94.31
2017-11-17T00:07:28.613Z,94.28
2017-11-17T00:08:34.681Z,94.30
2017-11-17T00:09:40.764Z,93.93
2017-11-17T00:10:46.926Z,94.08
2017-11-17T00:11:53.038Z,94.12
2017-11-17T00:12:59.244Z,93.96
2017-11-17T00:14:05.330Z,94.03
2017-11-17T00:15:11.085Z,94.09
2017-11-17T00:16:17.231Z,93.94
2017-11-17T00:17:23.368Z,94.12
2017-11-17T00:18:29.516Z,94.05
2017-11-17T00:19:35.662Z,94.19
2017-11-17T00:20:41.622Z,94.27
2017-11-17T00:21:52.656Z,94.34
2017-11-17T00:22:58.823Z,94.32
2017-11-17T00:24:04.957Z,94.20
2017-11-17T00:25:12.166Z,94.23
2017-11-17T00:26:18.302Z,94.10
2017-11-17T00:27:24.501Z,94.52
2017-11-17T00:28:30.658Z,94.65
2017-11-17T00:29:36.416Z,94.78
2017-11-17T00:30:42.533Z,94.85
2017-11-17T00:31:48.933Z,94.75
2017-11-17T00:32:55.061Z,94.79
2017-11-17T00:34:01.148Z,94.68
2017-11-17T00:35:07.237Z,94.45
2017-11-17T00:36:13.039Z,94.43
2017-11-17T00:37:19.166Z,94.40
2017-11-17T00:38:25.284Z,94.36
2017-11-17T00:39:31.539Z,94.58
2017-11-17T00:40:37.655Z,94.65
2017-11-17T00:41:43.774Z,94.47
2017-11-17T00:42:49.874Z,94.37
2017-11-17T00:43:55.982Z,94.61
2017-11-17T00:45:02.240Z,94.96
2017-11-17T00:46:08.324Z,95.01
2017-11-17T00:47:14.478Z,94.97
2017-11-17T00:48:20.735Z,94.71
2017-11-17T00:49:26.827Z,94.73
2017-11-17T00:50:32.929Z,94.60
2017-11-17T00:51:39.012Z,94.87
2017-11-17T00:52:45.128Z,94.83
2017-11-17T00:53:51.301Z,94.58
2017-11-17T00:54:57.178Z,94.60
2017-11-17T00:56:03.312Z,94.82
2017-11-17T00:57:09.393Z,94.61
2017-11-17T00:58:15.667Z,94.55
2017-11-17T00:59:21.454Z,94.42
2017-11-17T01:00:27.529Z,94.68
2017-11-17T01:01:33.467Z,94.74
2017-11-17T01:02:39.291Z,94.75
2017-11-17T01:03:45.382Z,94.74
2017-11-17T01:04:54.759Z,94.80
2017-11-17T01:06:00.866Z,94.55
2017-11-17T01:07:06.962Z,94.28
2017-11-17T01:08:13.091Z,94.08
2017-11-17T01:09:19.532Z,94.08
2017-11-17T01:10:25.650Z,94.36
2017-11-17T01:11:33.845Z,94.70
2017-11-17T01:12:39.938Z,94.70
2017-11-17T01:13:46.002Z,94.64
2017-11-17T01:14:52.229Z,94.46
2017-11-17T01:15:58.321Z,94.42
2017-11-17T01:17:04.448Z,94.78
2017-11-17T01:18:10.743Z,94.83
2017-11-17T01:19:16.921Z,94.65
2017-11-17T01:20:24.199Z,94.39
2017-11-17T01:21:30.423Z,94.13
2017-11-17T01:22:36.516Z,94.22
2017-11-17T01:23:42.646Z,94.35
2017-11-17T01:24:48.731Z,94.31
2017-11-17T01:25:54.847Z,94.29
2017-11-17T01:27:01.395Z,94.35
2017-11-17T01:28:07.479Z,94.35
2017-11-17T01:29:13.571Z,94.43
2017-11-17T01:30:19.734Z,94.33
2017-11-17T01:31:25.933Z,94.18
2017-11-17T01:32:32.161Z,94.37
2017-11-17T01:33:37.894Z,94.36
2017-11-17T01:34:43.987Z,94.21
2017-11-17T01:35:50.138Z,94.35
2017-11-17T01:36:56.219Z,94.34
2017-11-17T01:38:03.287Z,94.92
2017-11-17T01:39:09.300Z,95.23
2017-11-17T01:40:15.395Z,95.22
2017-11-17T01:41:21.228Z,95.55
2017-11-17T01:42:27.380Z,95.57
2017-11-17T01:43:33.643Z,95.78
2017-11-17T01:44:39.393Z,95.80
2017-11-17T01:45:45.507Z,95.67
2017-11-17T01:46:51.581Z,95.55
2017-11-17T01:47:57.679Z,95.44
2017-11-17T01:49:04.425Z,95.45
2017-11-17T01:50:10.615Z,95.54
2017-11-17T01:51:16.777Z,95.71
2017-11-17T01:52:22.924Z,95.76
2017-11-17T01:53:28.842Z,96.01
2017-11-17T01:54:34.698Z,96.51
2017-11-17T01:55:42.185Z,96.82
2017-11-17T01:56:47.871Z,96.70
2017-11-17T01:57:53.460Z,96.81
2017-11-17T01:58:59.655Z,96.67
2017-11-17T02:00:05.795Z,97.30
2017-11-17T02:01:11.395Z,97.24
2017-11-17T02:02:20.996Z,97.31
2017-11-17T02:03:26.755Z,97.24
2017-11-17T02:04:32.336Z,97.49
2017-11-17T02:05:37.775Z,97.14
2017-11-17T02:06:43.881Z,96.96
2017-11-17T02:07:50.054Z,97.02
2017-11-17T02:08:55.981Z,97.11
2017-11-17T02:10:01.766Z,97.35
2017-11-17T02:11:07.688Z,97.72
2017-11-17T02:12:13.794Z,98.25
2017-11-17T02:13:24.634Z,98.54
2017-11-17T02:14:30.875Z,98.59
2017-11-17T02:15:36.634Z,98.45
2017-11-17T02:16:42.403Z,98.18
2017-11-17T02:17:48.485Z,98.09
2017-11-17T02:18:54.570Z,98.05
2017-11-17T02:20:00.347Z,98.03
2017-11-17T02:21:10.709Z,97.96
2017-11-17T02:22:16.592Z,98.00
2017-11-17T02:23:22.008Z,97.97
2017-11-17T02:24:27.739Z,98.30
2017-11-17T02:25:33.180Z,98.15
2017-11-17T02:26:38.984Z,98.12
2017-11-17T02:27:44.499Z,98.20
2017-11-17T02:28:49.925Z,97.98
2017-11-17T02:29:55.153Z,97.75
2017-11-17T02:31:00.589Z,97.74
2017-11-17T02:32:06.805Z,97.75
2017-11-17T02:33:12.378Z,97.68
2017-11-17T02:34:17.816Z,97.79
2017-11-17T02:35:23.240Z,97.96
2017-11-17T02:36:28.660Z,98.38
2017-11-17T02:37:34.405Z,98.60
2017-11-17T02:38:42.938Z,98.73
2017-11-17T02:39:48.709Z,98.96
2017-11-17T02:40:54.485Z,99.23
2017-11-17T02:41:59.886Z,99.63
2017-11-17T02:43:05.671Z,99.43
2017-11-17T02:44:11.127Z,99.18
2017-11-17T02:45:21.785Z,99.08
2017-11-17T02:46:27.016Z,98.90
2017-11-17T02:47:32.446Z,98.66
2017-11-17T02:48:38.216Z,98.60
2017-11-17T02:49:43.837Z,98.92
2017-11-17T02:50:49.258Z,99.01
2017-11-17T02:51:54.705Z,99.06
2017-11-17T02:53:00.213Z,99.36
2017-11-17T02:54:06.025Z,99.38
2017-11-17T02:55:11.430Z,99.37
2017-11-17T02:56:16.887Z,99.33
2017-11-17T02:57:22.405Z,99.14
2017-11-17T02:58:28.235Z,99.01
2017-11-17T02:59:33.728Z,98.97
2017-11-17T03:00:39.552Z,99.35
2017-11-17T03:01:45.132Z,99.53
2017-11-17T03:02:50.711Z,99.33
2017-11-17T03:03:56.838Z,99.40
2017-11-17T03:05:03.346Z,99.19
2017-11-17T03:06:09.499Z,99.23
2017-11-17T03:07:15.092Z,99.42
2017-11-17T03:08:21.027Z,99.31
2017-11-17T03:09:26.994Z,99.39
2017-11-17T03:10:33.013Z,99.30
2017-11-17T03:11:39.219Z,99.34
2017-11-17T03:12:45.384Z,99.04
2017-11-17T03:13:51.520Z,98.74
2017-11-17T03:14:57.639Z,98.44
2017-11-17T03:16:03.074Z,98.58
2017-11-17T03:17:09.039Z,98.67
2017-11-17T03:18:14.865Z,98.90
2017-11-17T03:19:20.962Z,99.31
2017-11-17T03:20:27.074Z,99.34
2017-11-17T03:21:32.611Z,99.27
2017-11-17T03:22:38.780Z,99.34
2017-11-17T03:23:44.883Z,99.22
2017-11-17T03:24:50.626Z,99.17
2017-11-17T03:25:56.089Z,99.13
2017-11-17T03:27:01.538Z,99.14
2017-11-17T03:28:07.081Z,99.20
2017-11-17T03:29:12.685Z,99.06
2017-11-17T03:30:17.922Z,99.23
2017-11-17T03:31:23.157Z,99.17
2017-11-17T03:32:29.471Z,99.36
2017-11-17T03:33:35.558Z,99.55
2017-11-17T03:34:44.748Z,99.59
2017-11-17T03:35:50.868Z,99.72
2017-11-17T03:36:56.991Z,99.38
2017-11-17T03:38:03.083Z,99.03
2017-11-17T03:39:09.217Z,98.83
2017-11-17T03:40:15.008Z,98.88
2017-11-17T03:41:21.165Z,99.03
2017-11-17T03:42:26.968Z,98.93
2017-11-17T03:43:33.074Z,99.04
2017-11-17T03:44:38.540Z,99.15
2017-11-17T03:45:43.982Z,99.08
2017-11-17T03:46:49.458Z,98.93
2017-11-17T03:47:55.428Z,98.79
2017-11-17T03:49:01.555Z,98.71
2017-11-17T03:50:07.492Z,98.56
2017-11-17T03:51:18.719Z,98.59
2017-11-17T03:52:26.876Z,99.18
2017-11-17T03:53:35.177Z,99.13
2017-11-17T03:54:40.738Z,99.17
2017-11-17T03:55:46.872Z,99.10
2017-11-17T03:56:53.040Z,99.28
2017-11-17T03:58:05.117Z,99.61
2017-11-17T03:59:11.257Z,100.00
2017-11-17T04:00:16.733Z,100.00
2017-11-17T04:01:22.538Z,100.00
2017-11-17T04:02:28.716Z,100.00
2017-11-17T04:03:34.518Z,100.00
2017-11-17T04:04:40.277Z,100.00
2017-11-17T04:05:46.379Z,100.00
2017-11-17T04:06:52.541Z,100.00
2017-11-17T04:07:59.076Z,100.00
2017-11-17T04:09:04.671Z,100.00
2017-11-17T04:10:10.882Z,100.00
2017-11-17T04:11:17.039Z,100.00
2017-11-17T04:12:23.213Z,100.00
2017-11-17T04:13:35.464Z,100.00
2017-11-17T04:14:47.482Z,100.00
2017-11-17T04:15:53.639Z,100.00
2017-11-17T04:16:59.799Z,100.00
2017-11-17T04:18:05.583Z,100.00
2017-11-17T04:19:11.736Z,100.00
2017-11-17T04:20:17.505Z,100.00
2017-11-17T04:21:23.310Z,99.99
2017-11-17T04:22:35.391Z,99.92
2017-11-17T04:23:41.565Z,100.00
2017-11-17T04:24:47.332Z,100.00
2017-11-17T04:25:53.114Z,100.00
2017-11-17T04:26:59.397Z,100.00
2017-11-17T04:28:05.608Z,100.00
2017-11-17T04:29:11.402Z,100.00
2017-11-17T04:30:17.158Z,100.00
2017-11-17T04:31:23.313Z,100.00
2017-11-17T04:32:29.269Z,100.00
2017-11-17T04:33:35.268Z,100.00
2017-11-17T04:34:41.070Z,100.00
2017-11-17T04:35:47.180Z,100.00
2017-11-17T04:36:53.313Z,100.00
2017-11-17T04:38:05.306Z,100.00
2017-11-17T04:39:17.088Z,99.94
2017-11-17T04:40:23.244Z,99.92
2017-11-17T04:41:29.716Z,99.85
2017-11-17T04:42:35.533Z,99.61
2017-11-17T04:43:41.756Z,99.57
2017-11-17T04:44:47.971Z,99.73
2017-11-17T04:45:53.752Z,99.83
2017-11-17T04:46:59.884Z,99.67
2017-11-17T04:48:05.667Z,99.81
2017-11-17T04:49:11.817Z,99.68
2017-11-17T04:50:17.984Z,99.90
2017-11-17T04:51:23.755Z,99.94
2017-11-17T04:52:29.561Z,99.88
2017-11-17T04:53:35.456Z,99.95
2017-11-17T04:54:41.220Z,99.91
2017-11-17T04:55:46.786Z,99.91
2017-11-17T04:56:52.931Z,99.81
2017-11-17T04:57:58.789Z,99.64
2017-11-17T04:59:04.890Z,99.64
2017-11-17T05:00:10.318Z,99.80
2017-11-17T05:01:16.498Z,100.00
2017-11-17T05:02:22.344Z,100.00
2017-11-17T05:03:28.520Z,100.00
2017-11-17T05:04:34.375Z,100.00
2017-11-17T05:05:40.551Z,100.00
2017-11-17T05:06:46.707Z,99.82
2017-11-17T05:07:52.853Z,99.75
2017-11-17T05:08:59.431Z,99.88
2017-11-17T05:10:06.658Z,100.00
2017-11-17T05:11:12.836Z,99.82
2017-11-17T05:12:19.004Z,99.75
2017-11-17T05:13:25.551Z,99.78
2017-11-17T05:14:31.945Z,99.58
2017-11-17T05:15:38.109Z,99.72
2017-11-17T05:16:44.190Z,99.68
2017-11-17T05:17:49.996Z,99.60
2017-11-17T05:18:56.107Z,99.52
2017-11-17T05:20:02.252Z,99.29
2017-11-17T05:21:08.358Z,99.04
2017-11-17T05:22:14.508Z,99.08
2017-11-17T05:23:20.666Z,99.19
2017-11-17T05:24:26.814Z,99.09
2017-11-17T05:25:32.952Z,99.08
2017-11-17T05:26:39.080Z,98.93
2017-11-17T05:27:45.242Z,98.95
2017-11-17T05:28:51.383Z,99.24
2017-11-17T05:29:57.536Z,99.55
2017-11-17T05:31:03.885Z,99.64
2017-11-17T05:32:10.358Z,100.00
2017-11-17T05:33:16.796Z,100.00
2017-11-17T05:34:22.975Z,100.00
2017-11-17T05:35:29.172Z,100.00
2017-11-17T05:36:35.291Z,100.00
2017-11-17T05:37:41.436Z,100.00
2017-11-17T05:38:48.465Z,100.00
2017-11-17T05:39:54.973Z,100.00
2017-11-17T05:41:01.166Z,100.00
2017-11-17T05:42:07.326Z,100.00
2017-11-17T05:43:13.489Z,100.00
2017-11-17T05:44:19.635Z,100.00
2017-11-17T05:45:25.820Z,100.00
2017-11-17T05:46:32.067Z,100.00
2017-11-17T05:47:38.504Z,100.00
2017-11-17T05:48:44.642Z,100.00
2017-11-17T05:49:51.948Z,100.00
2017-11-17T05:50:59.796Z,100.00
2017-11-17T05:52:05.938Z,100.00
2017-11-17T05:53:12.093Z,100.00
2017-11-17T05:54:18.260Z,100.00
2017-11-17T05:55:24.398Z,100.00
2017-11-17T05:56:30.514Z,100.00
2017-11-17T05:57:36.648Z,100.00
2017-11-17T05:58:42.755Z,100.00
2017-11-17T05:59:48.944Z,100.00
2017-11-17T06:00:55.103Z,100.00
2017-11-17T06:02:01.231Z,100.00
2017-11-17T06:03:07.468Z,100.00
2017-11-17T06:04:13.583Z,100.00
2017-11-17T06:05:19.766Z,100.00
2017-11-17T06:06:26.011Z,100.00
2017-11-17T06:07:32.229Z,100.00
2017-11-17T06:08:38.446Z,100.00
2017-11-17T06:09:44.895Z,100.00
2017-11-17T06:10:51.014Z,100.00
2017-11-17T06:11:57.164Z,100.00
2017-11-17T06:13:03.292Z,100.00
2017-11-17T06:14:09.431Z,99.90
2017-11-17T06:15:15.535Z,100.00
2017-11-17T06:16:21.689Z,100.00
2017-11-17T06:17:27.820Z,100.00
2017-11-17T06:18:33.915Z,100.00
2017-11-17T06:19:40.205Z,99.86
2017-11-17T06:20:46.361Z,99.95
2017-11-17T06:21:53.491Z,99.80
2017-11-17T06:22:59.662Z,99.84
2017-11-17T06:24:05.812Z,99.86
2017-11-17T06:25:12.089Z,100.00
2017-11-17T06:26:18.226Z,100.00
2017-11-17T06:27:24.416Z,100.00
2017-11-17T06:28:30.723Z,100.00
2017-11-17T06:29:36.905Z,100.00
2017-11-17T06:30:43.010Z,100.00
2017-11-17T06:31:49.174Z,100.00
2017-11-17T06:32:55.425Z,100.00
2017-11-17T06:34:01.569Z,100.00
2017-11-17T06:35:07.732Z,100.00
2017-11-17T06:36:13.877Z,100.00
2017-11-17T06:37:20.028Z,100.00
2017-11-17T06:38:26.253Z,100.00
2017-11-17T06:39:32.485Z,100.00
2017-11-17T06:40:38.637Z,100.00
2017-11-17T06:41:44.822Z,100.00
2017-11-17T06:42:50.981Z,100.00
2017-11-17T06:43:57.072Z,100.00
2017-11-17T06:45:03.219Z,100.00
2017-11-17T06:46:09.348Z,100.00
2017-11-17T06:47:15.507Z,100.00
2017-11-17T06:48:26.199Z,100.00
2017-11-17T06:49:32.365Z,100.00
2017-11-17T06:50:38.513Z,100.00
2017-11-17T06:51:44.682Z,100.00
2017-11-17T06:52:51.166Z,100.00
2017-11-17T06:53:57.323Z,100.00
2017-11-17T06:55:03.890Z,100.00
2017-11-17T06:56:10.075Z,100.00
2017-11-17T06:57:16.258Z,100.00
2017-11-17T06:58:22.967Z,100.00
2017-11-17T06:59:29.910Z,100.00
2017-11-17T07:00:35.701Z,100.00
2017-11-17T07:01:41.870Z,100.00
2017-11-17T07:02:48.007Z,100.00
2017-11-17T07:03:54.140Z,100.00
2017-11-17T07:05:00.315Z,100.00
2017-11-17T07:06:06.419Z,100.00
2017-11-17T07:07:12.568Z,100.00
2017-11-17T07:08:18.716Z,100.00
2017-11-17T07:09:24.845Z,100.00
2017-11-17T07:10:31.102Z,100.00
2017-11-17T07:11:37.208Z,100.00
2017-11-17T07:12:43.607Z,100.00
2017-11-17T07:13:49.705Z,100.00
2017-11-17T07:14:55.812Z,100.00
2017-11-17T07:16:01.916Z,100.00
2017-11-17T07:17:08.004Z,99.80
2017-11-17T07:18:14.480Z,99.84
2017-11-17T07:19:20.592Z,99.78
2017-11-17T07:20:26.727Z,99.68
2017-11-17T07:21:32.822Z,99.62
2017-11-17T07:22:38.949Z,99.67
2017-11-17T07:23:45.089Z,99.55
2017-11-17T07:24:51.190Z,99.57
2017-11-17T07:25:57.753Z,99.54
2017-11-17T07:27:03.865Z,99.55
2017-11-17T07:28:09.987Z,99.55
2017-11-17T07:29:15.928Z,99.21
2017-11-17T07:30:22.022Z,99.38
2017-11-17T07:31:28.453Z,99.30
2017-11-17T07:32:34.575Z,99.47
2017-11-17T07:33:40.558Z,99.07
2017-11-17T07:34:46.334Z,98.90
2017-11-17T07:35:52.443Z,98.87
2017-11-17T07:36:58.624Z,98.98
2017-11-17T07:38:04.812Z,98.83
2017-11-17T07:39:10.956Z,98.67
2017-11-17T07:40:17.144Z,98.70
2017-11-17T07:41:23.338Z,98.67
2017-11-17T07:42:29.545Z,98.58
2017-11-17T07:43:35.704Z,98.78
2017-11-17T07:44:41.832Z,98.89
2017-11-17T07:45:47.973Z,99.00
2017-11-17T07:46:54.069Z,99.01
2017-11-17T07:48:00.289Z,99.01
2017-11-17T07:49:06.394Z,98.62
2017-11-17T07:50:17.843Z,98.57
2017-11-17T07:51:23.948Z,98.59
2017-11-17T07:52:30.320Z,98.64
2017-11-17T07:53:36.496Z,98.66
2017-11-17T07:54:42.659Z,98.59
2017-11-17T07:55:48.811Z,98.52
2017-11-17T07:56:54.947Z,98.69
2017-11-17T07:58:01.080Z,98.65
2017-11-17T07:59:07.326Z,98.43
2017-11-17T08:00:13.416Z,98.46
2017-11-17T08:01:19.349Z,98.61
2017-11-17T08:02:25.450Z,98.42
2017-11-17T08:03:31.622Z,98.29
2017-11-17T08:04:37.795Z,98.14
2017-11-17T08:05:43.967Z,98.18
2017-11-17T08:06:50.219Z,98.34
2017-11-17T08:07:56.373Z,98.34
2017-11-17T08:09:02.534Z,98.06
2017-11-17T08:10:08.568Z,97.83
2017-11-17T08:11:15.090Z,97.54
2017-11-17T08:12:21.242Z,97.41
2017-11-17T08:13:27.343Z,97.55
2017-11-17T08:14:33.768Z,97.35
2017-11-17T08:15:40.076Z,97.31
2017-11-17T08:16:46.307Z,97.10
2017-11-17T08:18:14.137Z,96.86
2017-11-17T08:19:37.626Z,96.76
2017-11-17T08:20:43.983Z,96.46
2017-11-17T08:21:50.212Z,96.50
2017-11-17T08:22:56.570Z,96.55
2017-11-17T08:24:02.720Z,96.29
2017-11-17T08:25:10.823Z,96.18
2017-11-17T08:26:16.990Z,96.34
2017-11-17T08:27:23.200Z,96.28
2017-11-17T08:28:29.332Z,96.06
2017-11-17T08:29:35.459Z,96.15
2017-11-17T08:30:41.623Z,96.00
2017-11-17T08:31:47.719Z,95.77
2017-11-17T08:32:53.992Z,95.49
2017-11-17T08:34:00.116Z,95.46
2017-11-17T08:35:06.472Z,95.64
2017-11-17T08:36:12.609Z,95.28
2017-11-17T08:37:18.724Z,95.01
2017-11-17T08:38:24.891Z,95.25
2017-11-17T08:39:31.113Z,95.05
2017-11-17T08:40:36.936Z,95.20
2017-11-17T08:41:43.057Z,95.20
2017-11-17T08:42:49.194Z,95.43
2017-11-17T08:43:55.575Z,95.43
2017-11-17T08:45:01.693Z,95.31
2017-11-17T08:46:07.820Z,95.57
2017-11-17T08:47:14.051Z,94.97
2017-11-17T08:48:19.811Z,94.28
2017-11-17T08:49:25.981Z,94.52
2017-11-17T08:50:31.484Z,94.59
2017-11-17T08:51:37.357Z,94.52
2017-11-17T08:52:43.187Z,94.36
2017-11-17T08:53:49.287Z,94.68
2017-11-17T08:54:55.275Z,94.48
2017-11-17T08:56:01.031Z,94.84
2017-11-17T08:57:07.187Z,95.26
2017-11-17T08:58:13.333Z,95.58
2017-11-17T08:59:19.454Z,95.46
2017-11-17T09:00:24.932Z,95.55
2017-11-17T09:01:30.988Z,95.78
2017-11-17T09:02:37.156Z,95.49
2017-11-17T09:03:43.293Z,95.43
2017-11-17T09:04:49.402Z,95.42
2017-11-17T09:05:55.516Z,95.02
2017-11-17T09:07:01.674Z,95.05
2017-11-17T09:08:07.824Z,95.01
2017-11-17T09:09:14.866Z,94.34
2017-11-17T09:10:21.053Z,93.99
2017-11-17T09:11:26.958Z,93.83
2017-11-17T09:12:33.124Z,93.65
2017-11-17T09:13:39.229Z,93.18
2017-11-17T09:14:45.118Z,92.88
2017-11-17T09:15:51.246Z,92.61
2017-11-17T09:16:57.352Z,92.71
2017-11-17T09:18:03.459Z,92.81
2017-11-17T09:19:09.618Z,92.96
2017-11-17T09:20:15.707Z,93.08
2017-11-17T09:21:21.808Z,92.75
2017-11-17T09:22:27.940Z,92.99
2017-11-17T09:23:34.062Z,93.60
2017-11-17T09:24:40.204Z,93.74
2017-11-17T09:25:46.331Z,93.69
2017-11-17T09:26:52.441Z,93.51
2017-11-17T09:27:58.545Z,93.23
2017-11-17T09:29:04.351Z,93.06
2017-11-17T09:30:10.471Z,92.77
2017-11-17T09:31:16.251Z,92.55
2017-11-17T09:32:22.380Z,92.10
2017-11-17T09:33:28.834Z,91.66
2017-11-17T09:34:35.023Z,91.52
2017-11-17T09:35:41.128Z,91.52
2017-11-17T09:36:47.295Z,91.17
2017-11-17T09:37:53.432Z,90.82
2017-11-17T09:38:59.564Z,90.93
2017-11-17T09:40:05.740Z,91.00
2017-11-17T09:41:11.887Z,90.48
2017-11-17T09:42:18.026Z,90.40
2017-11-17T09:43:24.160Z,90.55
2017-11-17T09:44:30.315Z,90.51
2017-11-17T09:45:35.784Z,90.54
2017-11-17T09:46:41.886Z,90.80
2017-11-17T09:47:48.018Z,89.88
2017-11-17T09:48:53.518Z,89.86
2017-11-17T09:49:59.281Z,90.04
2017-11-17T09:51:05.397Z,90.59
2017-11-17T09:52:11.648Z,90.67
2017-11-17T09:53:17.390Z,90.36
2017-11-17T09:54:23.518Z,90.12
2017-11-17T09:55:29.336Z,89.45
2017-11-17T09:56:35.540Z,89.71
2017-11-17T09:57:41.680Z,89.46
2017-11-17T09:58:47.547Z,89.57
2017-11-17T09:59:53.423Z,89.71
2017-11-17T10:00:59.543Z,89.74
2017-11-17T10:02:05.359Z,90.47
2017-11-17T10:03:11.157Z,90.55
2017-11-17T10:04:17.126Z,90.37
2017-11-17T10:05:23.233Z,90.48
2017-11-17T10:06:29.355Z,90.90
2017-11-17T10:07:40.326Z,90.71
2017-11-17T10:08:46.441Z,90.92
2017-11-17T10:09:52.572Z,90.78
2017-11-17T10:10:58.394Z,90.83
2017-11-17T10:12:04.495Z,90.52
2017-11-17T10:13:10.244Z,90.46
2017-11-17T10:14:16.018Z,90.31
2017-11-17T10:15:21.504Z,89.64
2017-11-17T10:16:27.675Z,89.67
2017-11-17T10:17:33.884Z,89.82
2017-11-17T10:18:39.991Z,89.37
2017-11-17T10:19:45.868Z,88.62
2017-11-17T10:20:51.678Z,87.71
2017-11-17T10:21:57.518Z,88.60
2017-11-17T10:23:03.708Z,89.34
2017-11-17T10:24:09.809Z,89.79
2017-11-17T10:25:21.799Z,89.69
2017-11-17T10:26:27.584Z,87.24
2017-11-17T10:27:33.985Z,86.02
2017-11-17T10:28:40.118Z,85.73
2017-11-17T10:29:46.229Z,85.60
2017-11-17T10:30:51.636Z,85.00
2017-11-17T10:31:57.735Z,85.24
2017-11-17T10:33:03.681Z,86.14
2017-11-17T10:34:09.455Z,86.02
2017-11-17T10:35:15.538Z,85.74
2017-11-17T10:36:21.620Z,85.45
2017-11-17T10:37:27.785Z,84.62
2017-11-17T10:38:34.220Z,84.97
2017-11-17T10:39:40.019Z,84.24
2017-11-17T10:40:45.794Z,84.07
2017-11-17T10:41:51.975Z,84.10
2017-11-17T10:43:03.250Z,84.03
2017-11-17T10:44:13.092Z,84.57
2017-11-17T10:45:18.868Z,84.78
2017-11-17T10:46:24.956Z,84.68
2017-11-17T10:47:30.776Z,84.39
2017-11-17T10:48:36.820Z,83.78
2017-11-17T10:49:43.096Z,83.42
2017-11-17T10:50:49.244Z,83.54
2017-11-17T10:51:55.349Z,83.20
2017-11-17T10:53:01.492Z,82.68
2017-11-17T10:54:07.628Z,82.39
2017-11-17T10:55:13.405Z,81.52
2017-11-17T10:56:24.950Z,80.72
2017-11-17T10:57:30.735Z,78.01
2017-11-17T10:58:36.457Z,77.01
2017-11-17T10:59:45.601Z,77.53
2017-11-17T11:00:51.397Z,78.32
2017-11-17T11:01:57.311Z,78.93
2017-11-17T11:03:03.391Z,77.38
2017-11-17T11:04:09.496Z,77.51
2017-11-17T11:05:15.705Z,77.31
2017-11-17T11:06:21.789Z,76.27
2017-11-17T11:07:27.872Z,75.76
2017-11-17T11:08:34.028Z,76.42
2017-11-17T11:09:40.183Z,76.87
2017-11-17T11:10:46.661Z,75.07
2017-11-17T11:11:52.846Z,74.82
2017-11-17T11:12:59.179Z,75.31
2017-11-17T11:14:05.255Z,75.31
2017-11-17T11:15:10.991Z,73.36
2017-11-17T11:16:17.137Z,73.75
2017-11-17T11:17:23.269Z,73.15
2017-11-17T11:18:29.072Z,73.53
2017-11-17T11:19:35.534Z,73.08
2017-11-17T11:20:41.614Z,73.49
2017-11-17T11:21:47.700Z,72.67
2017-11-17T11:22:53.804Z,72.50
2017-11-17T11:23:59.526Z,72.74
2017-11-17T11:25:05.917Z,72.69
2017-11-17T11:26:12.022Z,73.02
2017-11-17T11:27:17.801Z,73.29
2017-11-17T11:28:23.854Z,73.37
2017-11-17T11:29:29.973Z,73.10
2017-11-17T11:30:39.140Z,72.98
2017-11-17T11:31:45.273Z,73.38
2017-11-17T11:32:51.371Z,70.92
2017-11-17T11:33:57.187Z,69.81
2017-11-17T11:35:05.896Z,68.54
2017-11-17T11:36:18.234Z,69.70
2017-11-17T11:37:36.941Z,69.84
2017-11-17T11:38:46.796Z,69.69
2017-11-17T11:39:58.619Z,69.27
2017-11-17T11:41:04.833Z,69.39
2017-11-17T11:42:11.038Z,69.59
2017-11-17T11:43:17.250Z,69.28
2017-11-17T11:44:23.335Z,69.27
2017-11-17T11:45:29.415Z,66.79
2017-11-17T11:46:35.817Z,67.10
2017-11-17T11:47:41.939Z,66.93
2017-11-17T11:48:47.846Z,66.58
2017-11-17T11:49:53.993Z,65.61
2017-11-17T11:51:00.078Z,65.32
2017-11-17T11:52:06.229Z,65.50
2017-11-17T11:53:12.381Z,66.31
2017-11-17T11:54:18.472Z,66.39
2017-11-17T11:55:24.606Z,65.13
2017-11-17T11:56:30.866Z,65.02
2017-11-17T11:57:36.993Z,65.27
2017-11-17T11:58:43.105Z,65.64
2017-11-17T11:59:48.683Z,66.37
2017-11-17T12:00:54.161Z,66.30
2017-11-17T12:02:00.326Z,66.78
2017-11-17T12:03:06.463Z,67.21
2017-11-17T12:04:12.761Z,66.87
2017-11-17T12:05:18.849Z,67.40
2017-11-17T12:06:24.904Z,66.95
2017-11-17T12:07:30.991Z,66.50
2017-11-17T12:08:37.129Z,67.16
2017-11-17T12:09:43.311Z,66.64
2017-11-17T12:10:53.783Z,66.70
2017-11-17T12:12:00.583Z,67.02
2017-11-17T12:13:13.883Z,67.06
2017-11-17T12:14:19.965Z,66.10
2017-11-17T12:15:26.135Z,66.73
2017-11-17T12:16:32.220Z,66.37
2017-11-17T12:17:38.307Z,66.49
2017-11-17T12:18:44.389Z,67.04
2017-11-17T12:19:50.482Z,67.48
2017-11-17T12:20:56.620Z,67.67
2017-11-17T12:22:02.753Z,68.02
2017-11-17T12:23:08.904Z,68.19
2017-11-17T12:24:14.992Z,67.87
2017-11-17T12:25:21.091Z,66.75
2017-11-17T12:26:27.203Z,67.52
2017-11-17T12:27:33.352Z,67.55
2017-11-17T12:28:39.430Z,66.82
2017-11-17T12:29:45.149Z,66.24
2017-11-17T12:30:51.243Z,66.41
2017-11-17T12:31:57.713Z,64.52
2017-11-17T12:33:03.424Z,63.40
2017-11-17T12:34:09.512Z,64.08
2017-11-17T12:35:15.612Z,63.67
2017-11-17T12:36:21.720Z,62.12
2017-11-17T12:37:27.756Z,61.68
2017-11-17T12:38:33.804Z,62.19
2017-11-17T12:39:40.077Z,62.20
2017-11-17T12:40:46.165Z,60.89
2017-11-17T12:41:52.258Z,62.25
2017-11-17T12:42:58.332Z,63.18
2017-11-17T12:44:04.491Z,63.82
2017-11-17T12:45:10.247Z,64.07
2017-11-17T12:46:16.313Z,63.67
2017-11-17T12:47:22.204Z,62.34
2017-11-17T12:48:28.268Z,62.64
2017-11-17T12:49:34.421Z,62.55
2017-11-17T12:50:40.627Z,63.36
2017-11-17T12:51:46.740Z,63.89
2017-11-17T12:52:52.816Z,63.97
2017-11-17T12:53:58.708Z,64.55
2017-11-17T12:55:04.824Z,65.20
2017-11-17T12:56:10.922Z,65.06
2017-11-17T12:57:17.011Z,63.85
2017-11-17T12:58:23.145Z,62.68
2017-11-17T12:59:29.227Z,63.53
2017-11-17T13:00:35.349Z,64.36
2017-11-17T13:01:41.268Z,64.03
2017-11-17T13:02:47.381Z,63.47
2017-11-17T13:03:54.509Z,64.11
2017-11-17T13:05:00.670Z,63.90
2017-11-17T13:06:06.761Z,62.40
2017-11-17T13:07:13.036Z,62.59
2017-11-17T13:08:19.193Z,62.93
2017-11-17T13:09:24.966Z,63.51
2017-11-17T13:10:31.034Z,63.12
2017-11-17T13:11:37.322Z,63.46
2017-11-17T13:12:43.423Z,63.83
2017-11-17T13:13:49.500Z,64.07
2017-11-17T13:14:55.557Z,62.93
2017-11-17T13:16:01.631Z,62.59
2017-11-17T13:17:07.766Z,63.00
2017-11-17T13:18:13.846Z,63.12
2017-11-17T13:19:19.945Z,63.72
2017-11-17T13:20:25.671Z,63.72
2017-11-17T13:21:31.795Z,64.42
2017-11-17T13:22:37.954Z,64.17
2017-11-17T13:23:44.040Z,63.97
2017-11-17T13:24:49.805Z,64.60
2017-11-17T13:25:55.934Z,64.82
2017-11-17T13:27:02.143Z,63.59
2017-11-17T13:28:08.544Z,64.42
2017-11-17T13:29:14.658Z,64.35
2017-11-17T13:30:20.786Z,64.33
2017-11-17T13:31:26.875Z,64.16
2017-11-17T13:32:32.969Z,63.97
2017-11-17T13:33:39.422Z,64.19
2017-11-17T13:34:45.582Z,64.63
2017-11-17T13:35:51.762Z,65.15
2017-11-17T13:36:57.910Z,65.47
2017-11-17T13:38:04.020Z,65.20
2017-11-17T13:39:10.159Z,65.64
2017-11-17T13:40:16.272Z,65.63
2017-11-17T13:41:22.568Z,65.49
2017-11-17T13:42:29.094Z,65.31
2017-11-17T13:43:35.301Z,65.33
2017-11-17T13:44:41.432Z,65.46
2017-11-17T13:45:47.616Z,65.47
2017-11-17T13:46:53.790Z,66.01
2017-11-17T13:47:59.929Z,64.82
2017-11-17T13:49:06.078Z,65.42
2017-11-17T13:50:12.232Z,65.78
2017-11-17T13:51:18.441Z,65.86
2017-11-17T13:52:25.457Z,65.09
2017-11-17T13:53:31.599Z,64.82
2017-11-17T13:54:38.102Z,64.71
2017-11-17T13:55:44.249Z,64.37
2017-11-17T13:56:50.384Z,64.86
2017-11-17T13:57:56.513Z,63.98
2017-11-17T13:59:02.664Z,64.21
2017-11-17T14:00:08.999Z,64.10
2017-11-17T14:01:15.131Z,64.39
2017-11-17T14:02:21.256Z,64.19
2017-11-17T14:03:27.390Z,64.42
2017-11-17T14:04:33.769Z,64.34
2017-11-17T14:05:39.878Z,64.24
2017-11-17T14:06:46.025Z,64.17
2017-11-17T14:07:52.172Z,64.64
2017-11-17T14:08:58.392Z,65.54
2017-11-17T14:10:04.193Z,66.69